Time;durP1;ratioP1;P1;durP2;ratioP2;P2;SDS_P1;SDS_P2;PMS_P1;PMS_P2;Temp;Humidity;BMP_temperature;BMP_pressure;BME280_temperature;BME280_humidity;BME280_pressure;Samples;Min_cycle;Max_cycle;Signal;HPM_P1;HPM_P2
2023/06/30 00:08:12;;;;;;;9.8;7.8;;;;;;;15.71;82.36;;;;;
2023/06/30 00:19:12;;;;;;;9.8;7.8;;;;;;;15.47;83.49;;;;;
2023/06/30 00:30:12;;;;;;;11.8;6.9;;;;;;;15.36;82.22;;;;;
2023/06/30 00:40:13;;;;;;;11.8;6.9;;;;;;;15.16;81.5;;;;;
2023/06/30 00:50:11;;;;;;;14;7.7;;;;;;;14.93;84.09;;;;;
2023/06/30 01:00:12;;;;;;;14;7.7;;;;;;;14.8;83.24;;;;;
2023/06/30 01:11:11;;;;;;;14;7.7;;;;;;;14.57;85.43;;;;;
2023/06/30 01:21:13;;;;;;;10.3;6.7;;;;;;;14.49;84.92;;;;;
2023/06/30 01:31:12;;;;;;;10.3;6.7;;;;;;;14.35;84.87;;;;;
2023/06/30 01:41:12;;;;;;;10.3;6.7;;;;;;;14.25;84.77;;;;;
2023/06/30 01:52:12;;;;;;;8.3;6;;;;;;;14.16;84.47;;;;;
2023/06/30 02:02:12;;;;;;;8.3;6;;;;;;;13.97;84.63;;;;;
2023/06/30 02:12:12;;;;;;;8.3;6;;;;;;;13.8;84.79;;;;;
2023/06/30 02:22:12;;;;;;;11.5;7.1;;;;;;;13.66;84.75;;;;;
2023/06/30 02:33:12;;;;;;;11.5;7.1;;;;;;;13.47;84.99;;;;;
2023/06/30 02:43:13;;;;;;;11.5;7.1;;;;;;;13.41;85.28;;;;;
2023/06/30 02:54:13;;;;;;;8.6;6.8;;;;;;;13.39;85.36;;;;;
2023/06/30 03:05:13;;;;;;;8.6;6.8;;;;;;;13.43;86.5;;;;;
2023/06/30 03:16:12;;;;;;;8.6;6.8;;;;;;;13.66;86.77;;;;;
2023/06/30 03:26:14;;;;;;;9.4;6.9;;;;;;;14;87.01;;;;;
2023/06/30 03:37:12;;;;;;;9.4;6.9;;;;;;;14.57;86.82;;;;;
2023/06/30 03:47:12;;;;;;;9.4;6.9;;;;;;;15.11;86.26;;;;;
2023/06/30 03:57:13;;;;;;;9.4;6.4;;;;;;;15.54;85.03;;;;;
2023/06/30 04:07:13;;;;;;;9.4;6.4;;;;;;;15.96;83.87;;;;;
2023/06/30 04:17:13;;;;;;;9.4;6.4;;;;;;;16.42;82.96;;;;;
2023/06/30 04:28:13;;;;;;;8.8;7.2;;;;;;;16.99;81.09;;;;;
2023/06/30 04:39:13;;;;;;;8.8;7.2;;;;;;;17.45;79.77;;;;;
2023/06/30 04:49:13;;;;;;;8.8;7.2;;;;;;;17.96;78.49;;;;;
2023/06/30 04:59:13;;;;;;;9.3;7.7;;;;;;;18.34;77.51;;;;;
2023/06/30 05:10:13;;;;;;;9.3;7.7;;;;;;;18.51;76.99;;;;;
2023/06/30 05:20:13;;;;;;;9.2;7.2;;;;;;;19.01;75.58;;;;;
2023/06/30 05:31:13;;;;;;;9.2;7.2;;;;;;;19.54;74.14;;;;;
2023/06/30 05:42:13;;;;;;;9.2;7.2;;;;;;;19.94;70.45;;;;;
2023/06/30 05:52:13;;;;;;;7.4;4.9;;;;;;;20.21;68.36;;;;;
2023/06/30 06:03:13;;;;;;;7.4;4.9;;;;;;;20.57;67.7;;;;;
2023/06/30 06:13:13;;;;;;;7.4;4.9;;;;;;;20.94;66.4;;;;;
2023/06/30 06:23:13;;;;;;;7;3.5;;;;;;;21.66;65.04;;;;;
2023/06/30 06:34:13;;;;;;;7;3.5;;;;;;;22.12;62.63;;;;;
2023/06/30 06:44:13;;;;;;;7;3.5;;;;;;;22.61;62.56;;;;;
2023/06/30 06:55:13;;;;;;;7;4;;;;;;;22.88;61.37;;;;;
2023/06/30 07:06:13;;;;;;;7;4;;;;;;;23.15;62.11;;;;;
2023/06/30 07:16:17;;;;;;;7;4;;;;;;;23.17;59.07;;;;;
2023/06/30 07:27:13;;;;;;;6.7;3.4;;;;;;;23.64;54.35;;;;;
2023/06/30 07:37:13;;;;;;;6.7;3.4;;;;;;;23.97;54.73;;;;;
2023/06/30 07:48:13;;;;;;;6.7;3.4;;;;;;;24.21;52.32;;;;;
2023/06/30 07:59:13;;;;;;;4.8;2.5;;;;;;;24.47;51.81;;;;;
2023/06/30 08:10:13;;;;;;;4.8;2.5;;;;;;;24.7;48.11;;;;;
2023/06/30 08:20:13;;;;;;;6.9;3;;;;;;;24.91;48.64;;;;;
2023/06/30 08:30:13;;;;;;;6.9;3;;;;;;;25.05;46.29;;;;;
2023/06/30 08:41:13;;;;;;;6.9;3;;;;;;;25.43;46.16;;;;;
2023/06/30 08:52:14;;;;;;;4.7;2;;;;;;;25.71;47.98;;;;;
2023/06/30 09:03:13;;;;;;;4.7;2;;;;;;;25.6;44.15;;;;;
2023/06/30 09:13:13;;;;;;;4.7;2;;;;;;;25.96;43.71;;;;;
2023/06/30 09:23:13;;;;;;;4.4;2.1;;;;;;;26.29;44.48;;;;;
2023/06/30 09:34:13;;;;;;;4.4;2.1;;;;;;;26.42;42.54;;;;;
2023/06/30 09:44:13;;;;;;;4.4;2.1;;;;;;;26.64;42.07;;;;;
2023/06/30 09:55:13;;;;;;;4.3;1.7;;;;;;;27.26;41.19;;;;;
2023/06/30 10:05:13;;;;;;;4.3;1.7;;;;;;;27.07;41.56;;;;;
2023/06/30 10:15:13;;;;;;;4.3;1.7;;;;;;;27.32;40.33;;;;;
2023/06/30 10:25:14;;;;;;;4.4;2.2;;;;;;;27.43;40.68;;;;;
2023/06/30 10:36:13;;;;;;;4.4;2.2;;;;;;;27.66;41.29;;;;;
2023/06/30 10:46:13;;;;;;;4.4;2.2;;;;;;;27.84;41.64;;;;;
2023/06/30 10:57:14;;;;;;;3.9;2.1;;;;;;;28.03;39.32;;;;;
2023/06/30 11:08:13;;;;;;;3.9;2.1;;;;;;;28.63;39.73;;;;;
2023/06/30 11:18:13;;;;;;;3.9;2.1;;;;;;;28.64;39.16;;;;;
2023/06/30 11:28:13;;;;;;;5.1;2.5;;;;;;;28.41;41.01;;;;;
2023/06/30 11:39:13;;;;;;;5.1;2.5;;;;;;;28.67;40.77;;;;;
2023/06/30 11:50:13;;;;;;;5.1;2.5;;;;;;;29.33;38.23;;;;;
2023/06/30 12:00:13;;;;;;;5.1;2.5;;;;;;;29.29;38.91;;;;;
2023/06/30 12:10:13;;;;;;;5.1;2.5;;;;;;;29.62;39.94;;;;;
2023/06/30 12:20:13;;;;;;;4.9;2;;;;;;;29.84;37.94;;;;;
2023/06/30 12:31:13;;;;;;;4.9;2;;;;;;;30.01;36.71;;;;;
2023/06/30 12:42:13;;;;;;;4.9;2;;;;;;;30.52;37.23;;;;;
2023/06/30 12:53:13;;;;;;;4.6;2;;;;;;;30.69;36.75;;;;;
2023/06/30 13:03:13;;;;;;;4.6;2;;;;;;;30.67;36.58;;;;;
2023/06/30 13:14:13;;;;;;;4.6;2;;;;;;;29.71;39.38;;;;;
2023/06/30 13:24:13;;;;;;;4.1;2;;;;;;;29.76;37.62;;;;;
2023/06/30 13:35:13;;;;;;;4.1;2;;;;;;;30.13;37.48;;;;;
2023/06/30 13:45:13;;;;;;;4.1;2;;;;;;;29.94;37.62;;;;;
2023/06/30 13:55:13;;;;;;;4.4;2.1;;;;;;;29.85;39.3;;;;;
2023/06/30 14:05:13;;;;;;;4.4;2.1;;;;;;;29.88;39.86;;;;;
2023/06/30 14:16:13;;;;;;;4.4;2.1;;;;;;;30.67;38.92;;;;;
2023/06/30 14:27:13;;;;;;;5;2.4;;;;;;;30.95;37.41;;;;;
2023/06/30 14:37:13;;;;;;;5;2.4;;;;;;;30.44;38.23;;;;;
2023/06/30 14:47:13;;;;;;;5;2.4;;;;;;;30.58;38.06;;;;;
2023/06/30 14:57:13;;;;;;;4.1;2.3;;;;;;;30.53;37.55;;;;;
2023/06/30 15:07:13;;;;;;;4.1;2.3;;;;;;;30.07;39.43;;;;;
2023/06/30 15:18:13;;;;;;;4.1;2.3;;;;;;;29.78;41.31;;;;;
2023/06/30 15:28:13;;;;;;;4.5;2.5;;;;;;;29.77;40.95;;;;;
2023/06/30 15:38:13;;;;;;;4.5;2.5;;;;;;;29.36;42.12;;;;;
2023/06/30 15:48:13;;;;;;;4.5;2.5;;;;;;;28.86;43.98;;;;;
2023/06/30 15:58:13;;;;;;;5.1;2.5;;;;;;;28.99;45.44;;;;;
2023/06/30 16:08:13;;;;;;;5.1;2.5;;;;;;;30.22;44.7;;;;;
2023/06/30 16:18:13;;;;;;;5.1;2.5;;;;;;;30.74;41.76;;;;;
2023/06/30 16:29:13;;;;;;;5.9;2.7;;;;;;;30.48;40.68;;;;;
2023/06/30 16:39:13;;;;;;;5.9;2.7;;;;;;;32.79;37.15;;;;;
2023/06/30 16:49:13;;;;;;;5.9;2.7;;;;;;;35.63;33.33;;;;;
2023/06/30 16:59:13;;;;;;;5.6;2.7;;;;;;;34.31;30.78;;;;;
2023/06/30 17:10:13;;;;;;;5.6;2.7;;;;;;;31.82;34.6;;;;;
2023/06/30 17:21:13;;;;;;;6.4;2.5;;;;;;;29.87;38.46;;;;;
2023/06/30 17:31:13;;;;;;;6.4;2.5;;;;;;;28.79;41.56;;;;;
2023/06/30 17:41:13;;;;;;;6.4;2.5;;;;;;;27.73;45.1;;;;;
2023/06/30 17:51:13;;;;;;;6;3.4;;;;;;;26.86;48.89;;;;;
2023/06/30 18:02:13;;;;;;;6;3.4;;;;;;;26.22;50.61;;;;;
2023/06/30 18:12:13;;;;;;;6;3.4;;;;;;;25.63;52.76;;;;;
2023/06/30 18:22:13;;;;;;;7.7;4.9;;;;;;;25.18;54.36;;;;;
2023/06/30 18:33:13;;;;;;;7.7;4.9;;;;;;;24.68;55.36;;;;;
2023/06/30 18:43:13;;;;;;;7.7;4.9;;;;;;;24.33;53.97;;;;;
2023/06/30 18:53:13;;;;;;;8.3;4.6;;;;;;;24.09;54.72;;;;;
2023/06/30 19:04:13;;;;;;;8.3;4.6;;;;;;;23.71;60.39;;;;;
2023/06/30 19:14:13;;;;;;;8.3;4.6;;;;;;;23.24;62.85;;;;;
2023/06/30 19:24:13;;;;;;;12.1;9.2;;;;;;;22.92;63.39;;;;;
2023/06/30 19:34:13;;;;;;;12.1;9.2;;;;;;;22.45;63.64;;;;;
2023/06/30 19:44:13;;;;;;;12.1;9.2;;;;;;;21.92;62.88;;;;;
2023/06/30 19:54:13;;;;;;;24.3;15.4;;;;;;;21.63;64.49;;;;;
2023/06/30 20:05:13;;;;;;;24.3;15.4;;;;;;;21.47;64.2;;;;;
2023/06/30 20:15:13;;;;;;;24.3;15.4;;;;;;;21.34;64.76;;;;;
2023/06/30 20:25:14;;;;;;;13.8;10.3;;;;;;;21.25;65.12;;;;;
2023/06/30 20:35:13;;;;;;;13.8;10.3;;;;;;;21.26;65.27;;;;;
2023/06/30 20:46:13;;;;;;;13.8;10.3;;;;;;;21.19;66.98;;;;;
2023/06/30 20:56:13;;;;;;;15.5;12.1;;;;;;;21.15;66.6;;;;;
2023/06/30 21:07:13;;;;;;;15.5;12.1;;;;;;;21.18;67.34;;;;;
2023/06/30 21:17:13;;;;;;;15.5;12.1;;;;;;;21.15;71.2;;;;;
2023/06/30 21:28:15;;;;;;;16.4;11.4;;;;;;;21.07;71.31;;;;;
2023/06/30 21:38:13;;;;;;;16.4;11.4;;;;;;;20.79;68.36;;;;;
2023/06/30 21:49:13;;;;;;;16.4;11.4;;;;;;;20.68;70.14;;;;;
2023/06/30 21:59:13;;;;;;;8.9;6.6;;;;;;;20.33;70.13;;;;;
2023/06/30 22:10:13;;;;;;;8.9;6.6;;;;;;;20.28;70.39;;;;;
2023/06/30 22:20:13;;;;;;;8.9;6.6;;;;;;;20.21;69.79;;;;;
2023/06/30 22:30:13;;;;;;;9.4;5.1;;;;;;;20.23;69.06;;;;;
2023/06/30 22:40:13;;;;;;;9.4;5.1;;;;;;;20.16;68.31;;;;;
2023/06/30 22:51:15;;;;;;;8.7;4.9;;;;;;;20.09;68.9;;;;;
2023/06/30 23:01:13;;;;;;;8.7;4.9;;;;;;;20.06;68.21;;;;;
2023/06/30 23:12:13;;;;;;;8.7;4.9;;;;;;;20;67.85;;;;;
2023/06/30 23:22:15;;;;;;;6.4;4;;;;;;;20.01;67.96;;;;;
2023/06/30 23:32:15;;;;;;;6.4;4;;;;;;;19.92;68.93;;;;;
2023/06/30 23:42:13;;;;;;;6.4;4;;;;;;;19.88;69.4;;;;;
2023/06/30 23:53:13;;;;;;;6.3;3.8;;;;;;;19.76;70.02;;;;;
